Gypsum, CO (81637)

3:28 AM MDT on October 21, 2014 (GMT -0600)
Porphyry Road | Change Station
CLOSE
Current Station
Personal Weather Station
Location: Gypsum, CO
Elevation: 6286 ft
Nearby Weather Stations

Elev 6286 ft 39.65 °N, 106.96 °W | Updated 1 second ago

Overcast
Overcast
40.6 °F
Feels Like 41 °F
N
0.0
Wind Variable Wind from WNW
Gusts 0.0 mph

Today
High -- | Low -- °F
--% Chance of Precip.
Yesterday
High -- | Low -- °F
Precip. -- in
7:24 AM 6:19 PM
Waning Crescent, 6% visible
Pressure 30.18 in
Visibility 10.0 miles
Clouds Overcast 11000 ft
Windchill 41 °F
Dew Point 37 °F
Humidity 86%
Rainfall 0.00 in
Snow Depth Not available.
UV 0 out of 12
Pollen 1.80 out of 12
Air Quality Not available.
Flu Activity Sporadic
METAR KEGE 210915Z AUTO 00000KT 10SM OVC110 06/02 A3018 RMK AO1

More Conditions Fewer Conditions

Pressure 30.18 in
Visibility 10.0 miles
Clouds Overcast 11000 ft
Windchill 41 °F
Dew Point 37 °F
Humidity 86%
Rainfall 0.00 in
Snow Depth Not available.
UV 0 out of 12
Pollen 1.80 out of 12
Air Quality Not available.
Flu Activity Sporadic
METAR KEGE 210915Z AUTO 00000KT 10SM OVC110 06/02 A3018 RMK AO1

More Conditions Fewer Conditions

10-Day Weather Forecast

Almanac

Astronomy

Oct. 21, 2014 Rise Set
Actual Time 7:24 AM MDT 6:19 PM MDT
Civil Twilight 6:56 AM MDT 6:47 PM MDT
Nautical Twilight 6:25 AM MDT 7:18 PM MDT
Astronomical Twilight 5:54 AM MDT 7:49 PM MDT
Moon 5:11 AM MDT 5:15 PM MDT
Length of Visible Light 11h 50m
Length of Day
10h 55m
Tomorrow will be 2m 26s shorter.
Waning Crescent, 6% of the Moon is Illuminated
Today
Waning Crescent
Oct 23
New
Oct 30
First Quarter
Nov 6
Full
Nov 14
Last Quarter

Today's Extremes

State Highs State Lows

Community

WunderPhotos

Upload Photos

1,763,619 photos uploaded!

Nearby

Snow Depth

Station Depth Elevation
Mccoy Park 7 in 9480 ft
Bison Lake 1 in 10880 ft
Beaver Creek Village 0 in 8500 ft
Kiln 1 in 9600 ft
Trapper Lake 1 in 9700 ft

Earthquake Activity

City Distance Mag. Time & Date
No recent earthquake activity has been reported nearby.
Minimum magnitude displayed is 2.5.

Coastal Water Temperatures

Place Temperature
No Stations Reporting

Nearby Weather Stations